Wetterdaten: Woche 28.03.16 - 03.04.16 (KW13)
Datum Zeit Temp. A. Feuchte A. Luftdruck Regen Wind Richtung Sonnenschein ET UV Solar Taupunkt Windchill Windben Empfang
28.03.2016 00:00 7,3 C 85 % 1012,8 hPa 0,0 l/m 2,4 km/h (1 Bft) S-SW 0,00 h 0,000 mm 0,0 UV-I 0 W/m 4,8 C 7,3 C 3,7 km/h (1 Bft) 97,57 %
28.03.2016 01:00 6,8 C 88 % 1012,9 hPa 0,0 l/m 4,0 km/h (1 Bft) S 0,00 h 0,000 mm 0,0 UV-I 0 W/m 4,9 C 6,8 C 5,3 km/h (1 Bft) 98,80 %
28.03.2016 02:00 7,1 C 87 % 1012,8 hPa 0,0 l/m 3,3 km/h (1 Bft) S-SW 0,00 h 0,000 mm 0,0 UV-I 0 W/m 5,1 C 7,1 C 4,5 km/h (1 Bft) 97,85 %
28.03.2016 03:00 7,3 C 88 % 1012,9 hPa 0,0 l/m 6,5 km/h (2 Bft) SW 0,00 h 0,000 mm 0,0 UV-I 0 W/m 5,5 C 6,8 C 9,2 km/h (2 Bft) 98,56 %
28.03.2016 04:00 7,3 C 92 % 1012,8 hPa 0,2 l/m 7,2 km/h (2 Bft) W-SW 0,00 h 0,000 mm 0,0 UV-I 0 W/m 6,2 C 6,4 C 10,6 km/h (2 Bft) 98,37 %
28.03.2016 05:00 7,0 C 94 % 1012,4 hPa 0,0 l/m 8,5 km/h (2 Bft) W-SW 0,00 h 0,000 mm 0,0 UV-I 0 W/m 6,1 C 5,4 C 12,2 km/h (2 Bft) 98,76 %
28.03.2016 06:00 6,9 C 93 % 1012,0 hPa 0,0 l/m 3,4 km/h (1 Bft) SW 0,00 h 0,000 mm 0,0 UV-I 0 W/m 5,8 C 6,9 C 5,0 km/h (1 Bft) 98,19 %
28.03.2016 07:00 6,9 C 93 % 1011,5 hPa 0,0 l/m 1,5 km/h (1 Bft) SW 0,07 h 0,000 mm 0,0 UV-I 41 W/m 5,9 C 6,9 C 2,5 km/h (1 Bft) 98,06 %
28.03.2016 08:00 7,8 C 91 % 1010,9 hPa 0,0 l/m 1,9 km/h (1 Bft) NO 0,75 h 0,025 mm 0,5 UV-I 178 W/m 6,4 C 7,8 C 3,3 km/h (1 Bft) 98,15 %
28.03.2016 09:00 8,9 C 86 % 1010,1 hPa 0,0 l/m 6,4 km/h (2 Bft) NO 0,88 h 0,077 mm 0,7 UV-I 320 W/m 6,8 C 8,2 C 9,0 km/h (2 Bft) 98,51 %
28.03.2016 10:00 9,7 C 83 % 1009,0 hPa 0,0 l/m 12,1 km/h (2 Bft) NO 0,77 h 0,152 mm 1,4 UV-I 450 W/m 7,1 C 6,3 C 16,7 km/h (3 Bft) 97,78 %
28.03.2016 11:00 10,7 C 81 % 1008,3 hPa 0,0 l/m 13,0 km/h (3 Bft) O-NO 0,65 h 0,229 mm 2,0 UV-I 469 W/m 7,6 C 6,9 C 17,9 km/h (3 Bft) 98,89 %
28.03.2016 12:00 12,8 C 75 % 1007,5 hPa 0,0 l/m 14,8 km/h (3 Bft) O-NO 1,00 h 0,228 mm 2,7 UV-I 669 W/m 8,4 C 8,6 C 20,0 km/h (4 Bft) 97,97 %
28.03.2016 13:00 14,3 C 68 % 1007,0 hPa 0,0 l/m 11,6 km/h (2 Bft) O-NO 1,00 h 0,381 mm 2,8 UV-I 679 W/m 8,5 C 11,8 C 16,8 km/h (3 Bft) 98,33 %
28.03.2016 14:00 15,3 C 65 % 1006,6 hPa 0,0 l/m 7,0 km/h (2 Bft) NO 0,78 h 0,381 mm 2,3 UV-I 552 W/m 8,7 C 14,5 C 10,7 km/h (2 Bft) 98,14 %
28.03.2016 15:00 15,4 C 62 % 1006,0 hPa 0,0 l/m 3,1 km/h (1 Bft) N-NO 0,52 h 0,305 mm 1,5 UV-I 386 W/m 8,2 C 15,4 C 5,0 km/h (1 Bft) 98,20 %
28.03.2016 16:00 15,5 C 61 % 1005,5 hPa 0,0 l/m 1,3 km/h (1 Bft) O-NO 0,17 h 0,229 mm 0,8 UV-I 217 W/m 8,0 C 15,5 C 2,6 km/h (1 Bft) 98,70 %
28.03.2016 17:00 15,4 C 61 % 1005,1 hPa 0,0 l/m 0,9 km/h (0 Bft) N-NW 0,12 h 0,127 mm 0,6 UV-I 137 W/m 7,9 C 15,4 C 2,1 km/h (1 Bft) 98,68 %
28.03.2016 18:00 14,6 C 64 % 1005,2 hPa 0,0 l/m 2,1 km/h (1 Bft) NW 0,00 h 0,076 mm 0,0 UV-I 67 W/m 7,9 C 14,6 C 3,9 km/h (1 Bft) 97,96 %
28.03.2016 19:00 13,1 C 69 % 1005,2 hPa 0,0 l/m 1,0 km/h (0 Bft) N-NW 0,22 h 0,051 mm 0,0 UV-I 16 W/m 7,5 C 13,1 C 2,4 km/h (1 Bft) 98,52 %
28.03.2016 20:00 10,3 C 81 % 1005,3 hPa 0,0 l/m 2,2 km/h (1 Bft) O 0,00 h 0,025 mm 0,0 UV-I 0 W/m 7,2 C 10,3 C 3,1 km/h (1 Bft) 97,35 %
28.03.2016 21:00 8,7 C 86 % 1005,4 hPa 0,0 l/m 2,5 km/h (1 Bft) O 0,00 h 0,000 mm 0,0 UV-I 0 W/m 6,4 C 8,7 C 3,7 km/h (1 Bft) 98,65 %
28.03.2016 22:00 8,1 C 88 % 1005,9 hPa 0,0 l/m 3,2 km/h (1 Bft) S 0,00 h 0,000 mm 0,0 UV-I 0 W/m 6,2 C 8,1 C 4,4 km/h (1 Bft) 97,71 %
28.03.2016 23:00 7,9 C 88 % 1006,7 hPa 0,0 l/m 3,1 km/h (1 Bft) S 0,00 h 0,000 mm 0,0 UV-I 0 W/m 6,1 C 7,9 C 4,8 km/h (1 Bft) 99,66 %
29.03.2016 00:00 8,5 C 86 % 1007,0 hPa 0,0 l/m 8,4 km/h (2 Bft) S 0,00 h 0,000 mm 0,0 UV-I 0 W/m 6,3 C 6,8 C 13,0 km/h (3 Bft) 97,07 %
29.03.2016 01:00 8,5 C 84 % 1007,1 hPa 0,0 l/m 5,7 km/h (1 Bft) SW 0,00 h 0,025 mm 0,0 UV-I 0 W/m 6,0 C 8,1 C 8,7 km/h (2 Bft) 98,96 %
29.03.2016 02:00 8,0 C 84 % 1008,0 hPa 0,0 l/m 8,7 km/h (2 Bft) W 0,00 h 0,000 mm 0,0 UV-I 0 W/m 5,4 C 5,9 C 13,1 km/h (3 Bft) 97,62 %
29.03.2016 03:00 8,2 C 79 % 1008,7 hPa 0,0 l/m 6,0 km/h (2 Bft) W 0,00 h 0,026 mm 0,0 UV-I 0 W/m 4,8 C 7,6 C 10,6 km/h (2 Bft) 99,19 %
29.03.2016 04:00 7,8 C 81 % 1009,1 hPa 0,0 l/m 6,1 km/h (2 Bft) S 0,00 h 0,025 mm 0,0 UV-I 0 W/m 4,8 C 7,2 C 9,6 km/h (2 Bft) 97,68 %
29.03.2016 05:00 7,7 C 81 % 1008,9 hPa 0,0 l/m 5,1 km/h (1 Bft) S 0,00 h 0,026 mm 0,0 UV-I 0 W/m 4,6 C 7,5 C 8,2 km/h (2 Bft) 98,85 %
29.03.2016 06:00 7,1 C 82 % 1008,9 hPa 0,0 l/m 5,2 km/h (1 Bft) S 0,02 h 0,025 mm 0,0 UV-I 7 W/m 4,3 C 7,1 C 7,6 km/h (2 Bft) 98,06 %
29.03.2016 07:00 7,8 C 81 % 1010,2 hPa 0,0 l/m 9,1 km/h (2 Bft) W 0,37 h 0,000 mm 0,0 UV-I 53 W/m 4,8 C 5,8 C 13,8 km/h (3 Bft) 99,39 %
29.03.2016 08:00 8,8 C 78 % 1011,3 hPa 0,0 l/m 11,2 km/h (2 Bft) W-SW 0,00 h 0,051 mm 0,0 UV-I 52 W/m 5,1 C 5,7 C 17,0 km/h (3 Bft) 97,98 %
29.03.2016 09:00 9,5 C 75 % 1012,0 hPa 0,0 l/m 10,8 km/h (2 Bft) SW 0,23 h 0,051 mm 0,9 UV-I 197 W/m 5,3 C 6,6 C 15,6 km/h (3 Bft) 98,87 %
29.03.2016 10:00 10,8 C 69 % 1012,4 hPa 0,0 l/m 14,2 km/h (3 Bft) W-SW 0,48 h 0,127 mm 1,2 UV-I 358 W/m 5,4 C 6,5 C 21,1 km/h (4 Bft) 98,25 %
29.03.2016 11:00 11,7 C 59 % 1012,7 hPa 0,0 l/m 18,8 km/h (3 Bft) W-SW 0,17 h 0,228 mm 1,7 UV-I 321 W/m 4,0 C 6,0 C 26,6 km/h (4 Bft) 99,43 %
29.03.2016 12:00 11,9 C 63 % 1012,6 hPa 0,0 l/m 14,7 km/h (3 Bft) W-SW 0,50 h 0,254 mm 2,0 UV-I 444 W/m 5,0 C 7,8 C 21,4 km/h (4 Bft) 97,86 %
29.03.2016 13:00 11,5 C 66 % 1012,4 hPa 1,2 l/m 11,9 km/h (2 Bft) W 0,52 h 0,280 mm 2,3 UV-I 438 W/m 5,2 C 8,6 C 17,7 km/h (3 Bft) 98,90 %
29.03.2016 14:00 11,0 C 75 % 1012,1 hPa 2,2 l/m 12,0 km/h (2 Bft) W 0,55 h 0,254 mm 2,0 UV-I 399 W/m 6,6 C 7,8 C 17,4 km/h (3 Bft) 98,14 %
29.03.2016 15:00 12,4 C 69 % 1012,0 hPa 0,0 l/m 17,5 km/h (3 Bft) SW 0,97 h 0,228 mm 1,8 UV-I 553 W/m 6,8 C 7,3 C 25,5 km/h (4 Bft) 99,37 %
29.03.2016 16:00 13,7 C 59 % 1011,5 hPa 0,0 l/m 17,4 km/h (3 Bft) SW 0,83 h 0,330 mm 1,1 UV-I 428 W/m 5,8 C 8,9 C 25,2 km/h (4 Bft) 98,47 %
29.03.2016 17:00 13,4 C 57 % 1011,7 hPa 0,0 l/m 10,9 km/h (2 Bft) W 0,17 h 0,280 mm 0,2 UV-I 123 W/m 5,0 C 11,0 C 16,4 km/h (3 Bft) 98,72 %
29.03.2016 18:00 12,8 C 54 % 1012,2 hPa 0,0 l/m 10,2 km/h (2 Bft) W 0,00 h 0,127 mm 0,0 UV-I 60 W/m 3,7 C 10,7 C 14,1 km/h (3 Bft) 98,18 %
29.03.2016 19:00 11,8 C 57 % 1012,6 hPa 0,0 l/m 9,5 km/h (2 Bft) W 0,00 h 0,076 mm 0,0 UV-I 14 W/m 3,6 C 9,9 C 14,0 km/h (3 Bft) 98,39 %
29.03.2016 20:00 11,0 C 62 % 1012,8 hPa 0,0 l/m 11,6 km/h (2 Bft) W-SW 0,00 h 0,051 mm 0,0 UV-I 0 W/m 4,0 C 8,2 C 16,2 km/h (3 Bft) 98,45 %
29.03.2016 21:00 8,6 C 74 % 1012,8 hPa 0,0 l/m 2,4 km/h (1 Bft) S 0,00 h 0,051 mm 0,0 UV-I 0 W/m 4,2 C 8,6 C 4,0 km/h (1 Bft) 98,88 %
29.03.2016 22:00 8,0 C 79 % 1012,9 hPa 0,0 l/m 2,8 km/h (1 Bft) S-SO 0,00 h 0,000 mm 0,0 UV-I 0 W/m 4,5 C 7,8 C 4,4 km/h (1 Bft) 98,24 %
29.03.2016 23:00 7,7 C 83 % 1013,5 hPa 0,6 l/m 4,6 km/h (1 Bft) W-SW 0,00 h 0,000 mm 0,0 UV-I 0 W/m 5,0 C 6,8 C 7,1 km/h (2 Bft) 99,06 %
30.03.2016 00:00 8,1 C 86 % 1014,8 hPa 0,8 l/m 6,9 km/h (2 Bft) W-SW 0,00 h 0,000 mm 0,0 UV-I 0 W/m 6,0 C 7,4 C 10,0 km/h (2 Bft) 97,47 %
30.03.2016 01:00 7,8 C 90 % 1014,8 hPa 1,8 l/m 7,7 km/h (2 Bft) S-SO 0,00 h 0,000 mm 0,0 UV-I 0 W/m 6,3 C 6,3 C 11,8 km/h (2 Bft) 99,02 %
30.03.2016 02:00 7,9 C 91 % 1015,0 hPa 1,0 l/m 7,9 km/h (2 Bft) S 0,00 h 0,000 mm 0,0 UV-I 0 W/m 6,4 C 6,3 C 11,8 km/h (2 Bft) 97,43 %
30.03.2016 03:00 7,9 C 90 % 1014,4 hPa 0,0 l/m 4,6 km/h (1 Bft) S-SO 0,00 h 0,000 mm 0,0 UV-I 0 W/m 6,4 C 7,8 C 7,8 km/h (2 Bft) 99,52 %
30.03.2016 04:00 7,2 C 92 % 1013,8 hPa 0,0 l/m 2,5 km/h (1 Bft) S-SO 0,00 h 0,000 mm 0,0 UV-I 0 W/m 6,0 C 7,2 C 4,1 km/h (1 Bft) 97,34 %
30.03.2016 05:00 6,4 C 95 % 1013,6 hPa 0,0 l/m 3,4 km/h (1 Bft) NO 0,00 h 0,000 mm 0,0 UV-I 0 W/m 5,7 C 6,4 C 5,0 km/h (1 Bft) 99,37 %
30.03.2016 06:00 5,9 C 96 % 1013,6 hPa 0,0 l/m 4,8 km/h (1 Bft) O-NO 0,03 h 0,000 mm 0,0 UV-I 8 W/m 5,3 C 5,9 C 6,7 km/h (2 Bft) 97,70 %
30.03.2016 07:00 5,7 C 96 % 1013,6 hPa 0,0 l/m 1,4 km/h (1 Bft) O 0,00 h 0,000 mm 0,0 UV-I 45 W/m 5,2 C 5,7 C 2,8 km/h (1 Bft) 99,40 %
30.03.2016 08:00 7,3 C 95 % 1013,4 hPa 0,0 l/m 2,6 km/h (1 Bft) O-NO 0,72 h 0,025 mm 0,4 UV-I 180 W/m 6,4 C 7,2 C 3,8 km/h (1 Bft) 97,86 %
30.03.2016 09:00 8,9 C 89 % 1013,4 hPa 0,0 l/m 4,3 km/h (1 Bft) O-NO 0,72 h 0,077 mm 0,9 UV-I 288 W/m 7,2 C 8,8 C 6,2 km/h (2 Bft) 99,59 %
30.03.2016 10:00 10,5 C 83 % 1013,5 hPa 0,0 l/m 2,1 km/h (1 Bft) NO 1,00 h 0,127 mm 1,7 UV-I 484 W/m 7,8 C 10,5 C 3,8 km/h (1 Bft) 98,50 %
30.03.2016 11:00 12,5 C 78 % 1013,5 hPa 0,0 l/m 4,9 km/h (1 Bft) NO 1,00 h 0,228 mm 2,6 UV-I 546 W/m 8,8 C 12,2 C 7,5 km/h (2 Bft) 99,44 %
30.03.2016 12:00 14,3 C 72 % 1013,3 hPa 0,0 l/m 2,7 km/h (1 Bft) O-NO 1,00 h 0,280 mm 2,8 UV-I 505 W/m 9,3 C 14,3 C 4,6 km/h (1 Bft) 97,88 %
30.03.2016 13:00 15,8 C 65 % 1012,7 hPa 0,0 l/m 3,7 km/h (1 Bft) NO 0,97 h 0,279 mm 3,1 UV-I 553 W/m 9,2 C 15,7 C 6,3 km/h (2 Bft) 99,48 %
30.03.2016 14:00 16,8 C 61 % 1012,0 hPa 0,0 l/m 3,6 km/h (1 Bft) N-NO 0,98 h 0,305 mm 2,7 UV-I 534 W/m 9,3 C 16,7 C 6,0 km/h (2 Bft) 97,74 %
30.03.2016 15:00 17,3 C 58 % 1011,5 hPa 0,0 l/m 3,3 km/h (1 Bft) NW 0,93 h 0,305 mm 2,3 UV-I 530 W/m 9,0 C 17,3 C 6,0 km/h (2 Bft) 99,18 %
30.03.2016 16:00 17,6 C 59 % 1011,3 hPa 0,0 l/m 3,8 km/h (1 Bft) NW 0,95 h 0,304 mm 1,4 UV-I 421 W/m 9,5 C 17,5 C 6,9 km/h (2 Bft) 97,98 %
30.03.2016 17:00 17,5 C 60 % 1011,5 hPa 0,0 l/m 3,6 km/h (1 Bft) NW 0,95 h 0,254 mm 0,7 UV-I 299 W/m 9,6 C 17,5 C 6,5 km/h (2 Bft) 99,35 %
30.03.2016 18:00 16,2 C 64 % 1011,7 hPa 0,0 l/m 1,6 km/h (1 Bft) W 0,12 h 0,178 mm 0,0 UV-I 63 W/m 9,4 C 16,2 C 3,3 km/h (1 Bft) 97,54 %
30.03.2016 19:00 15,1 C 69 % 1012,0 hPa 0,0 l/m 2,3 km/h (1 Bft) W-NW 0,03 h 0,051 mm 0,0 UV-I 13 W/m 9,3 C 15,1 C 3,6 km/h (1 Bft) 99,28 %
30.03.2016 20:00 14,0 C 75 % 1012,5 hPa 0,0 l/m 1,1 km/h (1 Bft) SW 0,00 h 0,025 mm 0,0 UV-I 0 W/m 9,5 C 14,0 C 2,3 km/h (1 Bft) 97,47 %
30.03.2016 21:00 13,3 C 78 % 1013,0 hPa 0,0 l/m 2,8 km/h (1 Bft) NW 0,00 h 0,000 mm 0,0 UV-I 0 W/m 9,5 C 13,3 C 5,2 km/h (1 Bft) 99,17 %
30.03.2016 22:00 12,3 C 84 % 1013,5 hPa 0,0 l/m 1,6 km/h (1 Bft) N-NW 0,00 h 0,000 mm 0,0 UV-I 0 W/m 9,7 C 12,3 C 2,9 km/h (1 Bft) 97,97 %
30.03.2016 23:00 11,0 C 92 % 1013,4 hPa 0,0 l/m 3,3 km/h (1 Bft) O 0,00 h 0,000 mm 0,0 UV-I 0 W/m 9,8 C 11,0 C 4,8 km/h (1 Bft) 99,03 %
31.03.2016 00:00 11,5 C 89 % 1013,1 hPa 0,0 l/m 7,1 km/h (2 Bft) SO 0,00 h 0,000 mm 0,0 UV-I 0 W/m 9,7 C 10,8 C 10,6 km/h (2 Bft) 98,18 %
31.03.2016 01:00 11,1 C 88 % 1012,5 hPa 0,0 l/m 3,6 km/h (1 Bft) SO 0,00 h 0,000 mm 0,0 UV-I 0 W/m 9,2 C 11,1 C 5,4 km/h (1 Bft) 99,41 %
31.03.2016 02:00 10,1 C 91 % 1011,6 hPa 0,0 l/m 3,9 km/h (1 Bft) O-NO 0,00 h 0,000 mm 0,0 UV-I 0 W/m 8,7 C 10,1 C 5,2 km/h (1 Bft) 97,78 %
31.03.2016 03:00 8,9 C 94 % 1011,1 hPa 0,0 l/m 2,4 km/h (1 Bft) NO 0,00 h 0,000 mm 0,0 UV-I 0 W/m 7,9 C 8,9 C 3,6 km/h (1 Bft) 99,55 %
31.03.2016 04:00 7,7 C 95 % 1010,9 hPa 0,0 l/m 2,3 km/h (1 Bft) SO 0,00 h 0,000 mm 0,0 UV-I 0 W/m 7,0 C 7,7 C 3,4 km/h (1 Bft) 97,68 %
31.03.2016 05:00 6,6 C 96 % 1010,8 hPa 0,0 l/m 1,3 km/h (1 Bft) S-SO 0,00 h 0,000 mm 0,0 UV-I 0 W/m 6,1 C 6,6 C 2,5 km/h (1 Bft) 99,33 %
31.03.2016 06:00 6,3 C 97 % 1010,8 hPa 0,0 l/m 1,4 km/h (1 Bft) O-SO 0,03 h 0,000 mm 0,0 UV-I 9 W/m 5,8 C 6,3 C 2,5 km/h (1 Bft) 98,16 %
31.03.2016 07:00 6,9 C 97 % 1011,0 hPa 0,0 l/m 0,9 km/h (0 Bft) O-SO 0,00 h 0,000 mm 0,0 UV-I 35 W/m 6,5 C 6,9 C 1,7 km/h (1 Bft) 98,69 %
31.03.2016 08:00 7,7 C 98 % 1011,3 hPa 0,0 l/m 0,8 km/h (0 Bft) O-SO 0,68 h 0,025 mm 0,4 UV-I 190 W/m 7,4 C 7,7 C 1,7 km/h (1 Bft) 99,03 %
31.03.2016 09:00 10,6 C 94 % 1010,9 hPa 0,0 l/m 4,7 km/h (1 Bft) NO 0,87 h 0,077 mm 1,1 UV-I 389 W/m 9,6 C 10,6 C 6,5 km/h (2 Bft) 99,06 %
31.03.2016 10:00 13,4 C 80 % 1010,6 hPa 0,0 l/m 5,9 km/h (2 Bft) NO 1,00 h 0,177 mm 2,1 UV-I 507 W/m 10,1 C 13,1 C 8,5 km/h (2 Bft) 98,73 %
31.03.2016 11:00 15,3 C 74 % 1010,2 hPa 0,0 l/m 7,6 km/h (2 Bft) NO 1,00 h 0,280 mm 3,1 UV-I 627 W/m 10,8 C 14,6 C 11,5 km/h (2 Bft) 99,06 %
31.03.2016 12:00 17,1 C 69 % 1009,4 hPa 0,0 l/m 8,4 km/h (2 Bft) NO 1,00 h 0,355 mm 3,7 UV-I 703 W/m 11,4 C 16,0 C 12,5 km/h (3 Bft) 98,37 %
31.03.2016 13:00 18,6 C 65 % 1008,6 hPa 0,0 l/m 9,6 km/h (2 Bft) NO 1,00 h 0,407 mm 3,7 UV-I 690 W/m 11,7 C 17,3 C 13,7 km/h (3 Bft) 99,60 %
31.03.2016 14:00 20,2 C 58 % 1007,7 hPa 0,0 l/m 11,1 km/h (2 Bft) O-NO 1,00 h 0,432 mm 3,3 UV-I 665 W/m 11,8 C 18,6 C 15,4 km/h (3 Bft) 98,00 %
31.03.2016 15:00 21,2 C 51 % 1006,9 hPa 0,0 l/m 11,6 km/h (2 Bft) NO 0,95 h 0,431 mm 2,2 UV-I 506 W/m 10,6 C 19,6 C 16,0 km/h (3 Bft) 98,96 %
31.03.2016 16:00 21,4 C 46 % 1006,1 hPa 0,0 l/m 11,6 km/h (2 Bft) NO 0,55 h 0,381 mm 1,2 UV-I 323 W/m 9,3 C 19,8 C 16,0 km/h (3 Bft) 97,88 %
31.03.2016 17:00 20,3 C 49 % 1005,6 hPa 0,0 l/m 5,8 km/h (2 Bft) NO 0,00 h 0,280 mm 0,6 UV-I 146 W/m 9,4 C 20,2 C 7,9 km/h (2 Bft) 98,98 %
31.03.2016 18:00 19,3 C 51 % 1005,0 hPa 0,0 l/m 6,4 km/h (2 Bft) O-NO 0,00 h 0,127 mm 0,0 UV-I 52 W/m 8,9 C 19,1 C 9,1 km/h (2 Bft) 98,79 %
31.03.2016 19:00 18,0 C 56 % 1004,4 hPa 0,0 l/m 8,1 km/h (2 Bft) O 0,00 h 0,076 mm 0,0 UV-I 13 W/m 9,2 C 17,2 C 11,7 km/h (2 Bft) 99,11 %
31.03.2016 20:00 16,8 C 61 % 1004,4 hPa 0,0 l/m 5,1 km/h (1 Bft) O 0,00 h 0,051 mm 0,0 UV-I 0 W/m 9,2 C 16,4 C 7,5 km/h (2 Bft) 98,12 %
31.03.2016 21:00 14,9 C 70 % 1004,2 hPa 0,0 l/m 2,3 km/h (1 Bft) O 0,00 h 0,025 mm 0,0 UV-I 0 W/m 9,5 C 14,9 C 3,4 km/h (1 Bft) 98,88 %
31.03.2016 22:00 13,2 C 77 % 1004,1 hPa 0,0 l/m 2,8 km/h (1 Bft) S 0,00 h 0,026 mm 0,0 UV-I 0 W/m 9,3 C 13,2 C 3,9 km/h (1 Bft) 97,70 %
31.03.2016 23:00 12,8 C 77 % 1004,0 hPa 0,0 l/m 2,1 km/h (1 Bft) O-SO 0,00 h 0,000 mm 0,0 UV-I 0 W/m 8,9 C 12,8 C 3,1 km/h (1 Bft) 99,54 %
01.04.2016 00:00 12,0 C 78 % 1004,0 hPa 0,0 l/m 1,1 km/h (1 Bft) O-NO 0,00 h 0,000 mm 0,0 UV-I 0 W/m 8,3 C 12,0 C 2,0 km/h (1 Bft) 95,95 %
01.04.2016 01:00 11,8 C 76 % 1004,2 hPa 0,0 l/m 1,6 km/h (1 Bft) O-SO 0,00 h 0,000 mm 0,0 UV-I 0 W/m 7,7 C 11,8 C 2,4 km/h (1 Bft) 99,57 %
01.04.2016 02:00 11,0 C 81 % 1004,1 hPa 0,0 l/m 2,6 km/h (1 Bft) S-SW 0,00 h 0,000 mm 0,0 UV-I 0 W/m 7,9 C 11,0 C 3,7 km/h (1 Bft) 98,13 %
01.04.2016 03:00 11,1 C 79 % 1004,0 hPa 0,0 l/m 4,1 km/h (1 Bft) S 0,00 h 0,000 mm 0,0 UV-I 0 W/m 7,6 C 11,0 C 5,3 km/h (1 Bft) 99,08 %
01.04.2016 04:00 9,6 C 84 % 1004,2 hPa 0,0 l/m 1,2 km/h (1 Bft) O-NO 0,00 h 0,025 mm 0,0 UV-I 0 W/m 7,0 C 9,6 C 2,1 km/h (1 Bft) 98,90 %
01.04.2016 05:00 9,1 C 86 % 1004,7 hPa 0,0 l/m 3,9 km/h (1 Bft) S-SO 0,00 h 0,000 mm 0,0 UV-I 0 W/m 6,9 C 9,1 C 5,4 km/h (1 Bft) 98,12 %
01.04.2016 06:00 9,4 C 83 % 1005,2 hPa 0,0 l/m 3,3 km/h (1 Bft) S 0,00 h 0,000 mm 0,0 UV-I 8 W/m 6,7 C 9,4 C 5,0 km/h (1 Bft) 99,28 %
01.04.2016 07:00 9,1 C 86 % 1006,1 hPa 0,0 l/m 1,3 km/h (1 Bft) S 0,10 h 0,000 mm 0,0 UV-I 50 W/m 6,8 C 9,1 C 2,3 km/h (1 Bft) 97,80 %
01.04.2016 08:00 11,6 C 81 % 1007,5 hPa 0,0 l/m 3,7 km/h (1 Bft) S 0,98 h 0,026 mm 0,6 UV-I 231 W/m 8,3 C 11,4 C 5,9 km/h (2 Bft) 99,40 %
01.04.2016 09:00 14,4 C 72 % 1008,7 hPa 0,0 l/m 6,6 km/h (2 Bft) W-SW 0,93 h 0,127 mm 0,8 UV-I 303 W/m 9,4 C 14,0 C 11,5 km/h (2 Bft) 98,48 %
01.04.2016 10:00 15,9 C 63 % 1010,9 hPa 0,0 l/m 11,0 km/h (2 Bft) W 0,97 h 0,203 mm 1,6 UV-I 416 W/m 8,8 C 13,8 C 16,8 km/h (3 Bft) 99,26 %
01.04.2016 11:00 14,8 C 72 % 1012,4 hPa 0,0 l/m 14,0 km/h (3 Bft) W 0,77 h 0,279 mm 2,1 UV-I 475 W/m 9,9 C 11,5 C 22,4 km/h (4 Bft) 98,37 %
01.04.2016 12:00 13,3 C 76 % 1013,9 hPa 0,0 l/m 16,7 km/h (3 Bft) W 0,43 h 0,280 mm 2,0 UV-I 431 W/m 9,2 C 8,7 C 24,5 km/h (4 Bft) 98,89 %
01.04.2016 13:00 12,8 C 77 % 1014,6 hPa 0,0 l/m 12,3 km/h (3 Bft) W 0,00 h 0,254 mm 1,3 UV-I 237 W/m 9,0 C 9,8 C 19,3 km/h (3 Bft) 98,04 %
01.04.2016 14:00 12,9 C 77 % 1015,3 hPa 0,0 l/m 7,2 km/h (2 Bft) W-NW 0,00 h 0,152 mm 0,7 UV-I 137 W/m 8,9 C 12,0 C 12,4 km/h (3 Bft) 98,88 %
01.04.2016 15:00 12,2 C 77 % 1015,9 hPa 0,0 l/m 5,2 km/h (1 Bft) N-NO 0,00 h 0,102 mm 0,6 UV-I 66 W/m 8,2 C 11,7 C 9,2 km/h (2 Bft) 97,97 %
01.04.2016 16:00 10,1 C 79 % 1016,9 hPa 0,0 l/m 11,2 km/h (2 Bft) NO 0,00 h 0,051 mm 0,0 UV-I 68 W/m 6,6 C 7,1 C 15,6 km/h (3 Bft) 99,20 %
01.04.2016 17:00 9,1 C 79 % 1017,9 hPa 0,0 l/m 15,2 km/h (3 Bft) NO 0,00 h 0,050 mm 0,0 UV-I 52 W/m 5,6 C 4,0 C 20,2 km/h (4 Bft) 98,12 %
01.04.2016 18:00 7,8 C 79 % 1018,6 hPa 0,0 l/m 13,5 km/h (3 Bft) NO 0,00 h 0,051 mm 0,0 UV-I 26 W/m 4,4 C 3,4 C 18,4 km/h (3 Bft) 99,00 %
01.04.2016 19:00 7,3 C 79 % 1019,3 hPa 0,0 l/m 14,2 km/h (3 Bft) O-NO 0,00 h 0,051 mm 0,0 UV-I 6 W/m 3,9 C 2,4 C 19,1 km/h (3 Bft) 98,33 %
01.04.2016 20:00 7,1 C 79 % 1020,0 hPa 0,0 l/m 11,3 km/h (2 Bft) O-NO 0,00 h 0,025 mm 0,0 UV-I 0 W/m 3,8 C 3,7 C 16,2 km/h (3 Bft) 98,76 %
01.04.2016 21:00 7,3 C 82 % 1020,6 hPa 0,0 l/m 15,0 km/h (3 Bft) NO 0,00 h 0,026 mm 0,0 UV-I 0 W/m 4,5 C 2,2 C 20,4 km/h (4 Bft) 98,13 %
01.04.2016 22:00 7,2 C 82 % 1020,9 hPa 0,0 l/m 18,5 km/h (3 Bft) O-NO 0,00 h 0,025 mm 0,0 UV-I 0 W/m 4,3 C 0,3 C 24,1 km/h (4 Bft) 99,41 %
01.04.2016 23:00 7,1 C 79 % 1020,9 hPa 0,0 l/m 19,7 km/h (3 Bft) O-NO 0,00 h 0,026 mm 0,0 UV-I 0 W/m 3,7 C -0,2 C 26,0 km/h (4 Bft) 98,26 %
02.04.2016 00:00 6,7 C 78 % 1020,7 hPa 0,0 l/m 22,4 km/h (4 Bft) O-NO 0,00 h 0,000 mm 0,0 UV-I 0 W/m 3,3 C -1,7 C 29,2 km/h (5 Bft) 99,50 %
02.04.2016 01:00 6,6 C 78 % 1020,9 hPa 0,0 l/m 20,6 km/h (4 Bft) O-NO 0,00 h 0,051 mm 0,0 UV-I 0 W/m 3,1 C -1,3 C 27,3 km/h (4 Bft) 97,38 %
02.04.2016 02:00 6,3 C 75 % 1020,6 hPa 0,0 l/m 21,0 km/h (4 Bft) O-NO 0,00 h 0,051 mm 0,0 UV-I 0 W/m 2,2 C -1,9 C 27,4 km/h (4 Bft) 99,11 %
02.04.2016 03:00 5,8 C 76 % 1020,4 hPa 0,0 l/m 20,7 km/h (4 Bft) O-NO 0,00 h 0,050 mm 0,0 UV-I 0 W/m 1,9 C -2,3 C 27,2 km/h (4 Bft) 97,99 %
02.04.2016 04:00 5,5 C 78 % 1020,1 hPa 0,0 l/m 23,4 km/h (4 Bft) O-NO 0,00 h 0,051 mm 0,0 UV-I 0 W/m 2,0 C -3,7 C 30,9 km/h (5 Bft) 99,33 %
02.04.2016 05:00 5,1 C 79 % 1019,9 hPa 0,0 l/m 23,8 km/h (4 Bft) O-NO 0,00 h 0,051 mm 0,0 UV-I 0 W/m 1,7 C -4,4 C 31,2 km/h (5 Bft) 97,44 %
02.04.2016 06:00 4,7 C 75 % 1019,7 hPa 0,0 l/m 23,6 km/h (4 Bft) O-NO 0,05 h 0,051 mm 0,0 UV-I 11 W/m 0,7 C -4,8 C 31,7 km/h (5 Bft) 99,39 %
02.04.2016 07:00 4,6 C 73 % 1020,0 hPa 0,0 l/m 21,8 km/h (4 Bft) O-NO 0,00 h 0,051 mm 0,0 UV-I 55 W/m 0,2 C -4,4 C 28,8 km/h (5 Bft) 98,22 %
02.04.2016 08:00 5,1 C 72 % 1020,2 hPa 0,0 l/m 21,2 km/h (4 Bft) O-NO 0,48 h 0,076 mm 0,5 UV-I 172 W/m 0,5 C -3,4 C 28,2 km/h (4 Bft) 99,54 %
02.04.2016 09:00 6,1 C 71 % 1020,4 hPa 0,0 l/m 21,0 km/h (4 Bft) O-NO 1,00 h 0,127 mm 1,0 UV-I 343 W/m 1,2 C -2,1 C 26,8 km/h (4 Bft) 98,28 %
02.04.2016 10:00 7,4 C 68 % 1020,3 hPa 0,0 l/m 21,5 km/h (4 Bft) O-NO 1,00 h 0,203 mm 1,7 UV-I 490 W/m 1,9 C -0,5 C 28,0 km/h (4 Bft) 98,47 %
02.04.2016 11:00 9,1 C 64 % 1019,8 hPa 0,0 l/m 21,1 km/h (4 Bft) O-NO 1,00 h 0,279 mm 2,5 UV-I 617 W/m 2,7 C 1,9 C 28,2 km/h (4 Bft) 98,80 %
02.04.2016 12:00 11,0 C 59 % 1019,1 hPa 0,0 l/m 20,7 km/h (4 Bft) O-NO 1,00 h 0,356 mm 3,0 UV-I 676 W/m 3,3 C 4,4 C 27,5 km/h (4 Bft) 98,15 %
02.04.2016 13:00 12,4 C 58 % 1018,6 hPa 0,0 l/m 19,4 km/h (3 Bft) O-NO 1,00 h 0,406 mm 3,0 UV-I 689 W/m 4,3 C 6,6 C 25,5 km/h (4 Bft) 99,45 %
02.04.2016 14:00 13,9 C 56 % 1018,0 hPa 0,0 l/m 16,6 km/h (3 Bft) NO 1,00 h 0,432 mm 2,6 UV-I 644 W/m 5,4 C 9,4 C 22,1 km/h (4 Bft) 97,47 %
02.04.2016 15:00 14,8 C 54 % 1017,4 hPa 0,0 l/m 16,9 km/h (3 Bft) NO 1,00 h 0,407 mm 1,8 UV-I 527 W/m 5,6 C 10,5 C 22,9 km/h (4 Bft) 98,96 %
02.04.2016 16:00 14,9 C 53 % 1016,8 hPa 0,0 l/m 19,4 km/h (3 Bft) NO 0,87 h 0,355 mm 1,0 UV-I 346 W/m 5,3 C 9,8 C 25,7 km/h (4 Bft) 98,37 %
02.04.2016 17:00 14,7 C 54 % 1016,3 hPa 0,0 l/m 18,0 km/h (3 Bft) O-NO 0,82 h 0,280 mm 0,5 UV-I 229 W/m 5,5 C 9,9 C 24,0 km/h (4 Bft) 98,53 %
02.04.2016 18:00 14,3 C 53 % 1016,1 hPa 0,0 l/m 18,6 km/h (3 Bft) O-NO 0,37 h 0,228 mm 0,0 UV-I 93 W/m 4,9 C 9,3 C 24,4 km/h (4 Bft) 98,65 %
02.04.2016 19:00 13,1 C 57 % 1016,2 hPa 0,0 l/m 16,7 km/h (3 Bft) O-NO 0,00 h 0,153 mm 0,0 UV-I 14 W/m 4,8 C 8,3 C 21,8 km/h (4 Bft) 98,55 %
02.04.2016 20:00 12,3 C 60 % 1016,4 hPa 0,0 l/m 20,0 km/h (4 Bft) O-NO 0,00 h 0,101 mm 0,0 UV-I 0 W/m 4,6 C 6,3 C 26,6 km/h (4 Bft) 98,74 %
02.04.2016 21:00 11,6 C 61 % 1016,3 hPa 0,0 l/m 19,9 km/h (4 Bft) O-NO 0,00 h 0,102 mm 0,0 UV-I 0 W/m 4,3 C 5,5 C 26,9 km/h (4 Bft) 97,66 %
02.04.2016 22:00 10,9 C 64 % 1016,3 hPa 0,0 l/m 18,4 km/h (3 Bft) O-NO 0,00 h 0,101 mm 0,0 UV-I 0 W/m 4,2 C 5,0 C 24,4 km/h (4 Bft) 98,33 %
02.04.2016 23:00 9,8 C 68 % 1015,9 hPa 0,0 l/m 15,0 km/h (3 Bft) O-NO 0,00 h 0,077 mm 0,0 UV-I 0 W/m 4,2 C 4,9 C 20,2 km/h (4 Bft) 98,58 %
03.04.2016 00:00 8,9 C 72 % 1015,6 hPa 0,0 l/m 13,1 km/h (3 Bft) O-NO 0,00 h 0,000 mm 0,0 UV-I 0 W/m 4,2 C 4,8 C 17,9 km/h (3 Bft) 98,65 %
03.04.2016 01:00 8,2 C 74 % 1015,3 hPa 0,0 l/m 10,9 km/h (2 Bft) NO 0,00 h 0,051 mm 0,0 UV-I 0 W/m 3,9 C 5,3 C 14,9 km/h (3 Bft) 98,53 %
03.04.2016 02:00 7,1 C 78 % 1015,0 hPa 0,0 l/m 6,4 km/h (2 Bft) O-NO 0,00 h 0,025 mm 0,0 UV-I 0 W/m 3,6 C 6,3 C 9,0 km/h (2 Bft) 98,24 %
03.04.2016 03:00 6,3 C 81 % 1014,5 hPa 0,0 l/m 3,3 km/h (1 Bft) NO 0,00 h 0,026 mm 0,0 UV-I 0 W/m 3,3 C 6,3 C 4,8 km/h (1 Bft) 98,81 %
03.04.2016 04:00 5,5 C 83 % 1014,2 hPa 0,0 l/m 2,1 km/h (1 Bft) O-NO 0,00 h 0,000 mm 0,0 UV-I 0 W/m 2,9 C 5,5 C 3,4 km/h (1 Bft) 98,65 %
03.04.2016 05:00 4,4 C 88 % 1014,2 hPa 0,0 l/m 1,6 km/h (1 Bft) NO 0,00 h 0,000 mm 0,0 UV-I 0 W/m 2,5 C 4,4 C 2,6 km/h (1 Bft) 98,93 %
03.04.2016 06:00 3,4 C 90 % 1014,2 hPa 0,0 l/m 0,6 km/h (0 Bft) NO 0,13 h 0,000 mm 0,0 UV-I 13 W/m 1,9 C 3,4 C 1,1 km/h (1 Bft) 97,68 %
03.04.2016 07:00 4,3 C 90 % 1014,3 hPa 0,0 l/m 1,2 km/h (1 Bft) NW 0,45 h 0,000 mm 0,0 UV-I 82 W/m 2,8 C 4,3 C 2,2 km/h (1 Bft) 99,50 %
03.04.2016 08:00 7,0 C 82 % 1014,4 hPa 0,0 l/m 7,5 km/h (2 Bft) NO 1,00 h 0,025 mm 0,5 UV-I 215 W/m 4,2 C 5,9 C 10,5 km/h (2 Bft) 97,80 %
03.04.2016 09:00 8,3 C 77 % 1014,4 hPa 0,0 l/m 7,0 km/h (2 Bft) O-NO 0,78 h 0,102 mm 0,8 UV-I 277 W/m 4,5 C 7,5 C 9,7 km/h (2 Bft) 99,29 %
03.04.2016 10:00 9,9 C 73 % 1014,4 hPa 0,0 l/m 4,5 km/h (1 Bft) NO 0,53 h 0,127 mm 1,4 UV-I 385 W/m 5,3 C 9,9 C 6,3 km/h (2 Bft) 98,32 %
03.04.2016 11:00 12,4 C 68 % 1014,1 hPa 0,0 l/m 5,6 km/h (1 Bft) NO 1,00 h 0,203 mm 2,5 UV-I 622 W/m 6,7 C 12,0 C 8,7 km/h (2 Bft) 97,82 %
03.04.2016 12:00 14,3 C 63 % 1013,6 hPa 0,0 l/m 5,4 km/h (1 Bft) O-NO 1,00 h 0,330 mm 3,1 UV-I 665 W/m 7,4 C 14,0 C 8,3 km/h (2 Bft) 98,52 %
03.04.2016 13:00 15,9 C 58 % 1012,9 hPa 0,0 l/m 7,5 km/h (2 Bft) O-NO 0,97 h 0,356 mm 2,8 UV-I 578 W/m 7,7 C 15,2 C 11,4 km/h (2 Bft) 98,32 %
03.04.2016 14:00 16,8 C 57 % 1012,2 hPa 0,0 l/m 6,2 km/h (2 Bft) O-NO 0,75 h 0,355 mm 2,0 UV-I 448 W/m 8,2 C 16,5 C 8,9 km/h (2 Bft) 98,51 %
03.04.2016 15:00 17,5 C 55 % 1011,7 hPa 0,0 l/m 6,3 km/h (2 Bft) O-NO 0,87 h 0,280 mm 1,5 UV-I 397 W/m 8,4 C 17,2 C 9,1 km/h (2 Bft) 97,93 %
03.04.2016 16:00 17,9 C 57 % 1011,3 hPa 0,0 l/m 4,4 km/h (1 Bft) O-SO 0,37 h 0,254 mm 0,9 UV-I 278 W/m 9,3 C 17,8 C 6,5 km/h (2 Bft) 98,68 %
03.04.2016 17:00 18,2 C 55 % 1010,7 hPa 0,0 l/m 11,2 km/h (2 Bft) O-NO 0,82 h 0,177 mm 0,6 UV-I 273 W/m 9,0 C 16,2 C 15,1 km/h (3 Bft) 97,79 %
03.04.2016 18:00 16,5 C 61 % 1010,3 hPa 0,0 l/m 8,2 km/h (2 Bft) O-NO 0,00 h 0,229 mm 0,0 UV-I 60 W/m 9,0 C 15,5 C 11,3 km/h (2 Bft) 99,18 %
03.04.2016 19:00 15,2 C 67 % 1010,0 hPa 0,0 l/m 9,6 km/h (2 Bft) O-NO 0,00 h 0,076 mm 0,0 UV-I 17 W/m 9,0 C 13,6 C 13,1 km/h (3 Bft) 97,37 %
03.04.2016 20:00 14,9 C 65 % 1009,8 hPa 0,0 l/m 13,3 km/h (3 Bft) O-NO 0,00 h 0,051 mm 0,0 UV-I 0 W/m 8,4 C 11,7 C 18,5 km/h (3 Bft) 99,24 %
03.04.2016 21:00 14,1 C 67 % 1009,5 hPa 0,0 l/m 8,1 km/h (2 Bft) O-NO 0,00 h 0,051 mm 0,0 UV-I 0 W/m 8,0 C 13,1 C 11,3 km/h (2 Bft) 97,20 %
03.04.2016 22:00 12,9 C 71 % 1009,4 hPa 0,0 l/m 4,6 km/h (1 Bft) NO 0,00 h 0,025 mm 0,0 UV-I 0 W/m 7,7 C 12,8 C 6,1 km/h (2 Bft) 98,91 %
03.04.2016 23:00 10,5 C 79 % 1009,2 hPa 0,0 l/m 1,4 km/h (1 Bft) O-NO 0,00 h 0,026 mm 0,0 UV-I 0 W/m 7,1 C 10,5 C 2,3 km/h (1 Bft) 97,70 %
Min-Datum _ 03.04.16 31.03.16 01.04.16 - 28.03.16 - - - - - 02.04.16 02.04.16 28.03.16 01.04.16
_ Min-Zeit 06:54 16:22 00:29 - 07:28 - - - - - 07:51 06:27 07:28 00:02
Minimum _ 3,1 C 43 % 1003,8 hPa - 0,0 km/h (0 Bft) - - - - - -0,0 C -7,4 C 0,0 km/h (0 Bft) 4,76 %
Max-Datum _ 31.03.16 31.03.16 02.04.16 29.03.16 29.03.16 - 28.03.16 31.03.16 31.03.16 29.03.16 31.03.16 31.03.16 29.03.16 28.03.16
_ Max-Zeit 16:10 06:32 01:29 14:02 13:36 - 12:16 14:00 13:34 13:06 14:46 15:43 13:36 00:00
Maximum _ 21,8 C 98 % 1021,2 hPa 2,2 l/m 34,9 km/h
W (5 Bft)
- 0,08 h 0,432 mm 4,1 UV-I 915 W/m 13,3 C 21,5 C 49,9 km/h
W (6 Bft)
100,00 %
Durchschnitt _ 11,0 C 75 % 1012,1 hPa #7,8 l/m 8,4 km/h (2 Bft) O-NO #51:38 h #18,950 mm 1,7 UV-I 296 W/m 6,4 C 9,0 C 12,0 km/h (2 Bft) 98,50 %